Time;durP1;ratioP1;P1;durP2;ratioP2;P2;SDS_P1;SDS_P2;PMS_P1;PMS_P2;Temp;Humidity;BMP_temperature;BMP_pressure;BME280_temperature;BME280_humidity;BME280_pressure;Samples;Min_cycle;Max_cycle;Signal;HPM_P1;HPM_P2
2024/01/16 00:00:15;;;;;;;8.13;1.23;;;0.50;99.90;;;;;;6120424;23;20029;-69
2024/01/16 00:02:41;;;;;;;9.60;1.35;;;0.50;99.90;;;;;;6119951;23;20072;-69
2024/01/16 00:05:06;;;;;;;6.15;1.40;;;0.50;99.90;;;;;;6121057;23;20470;-70
2024/01/16 00:07:34;;;;;;;5.05;0.90;;;0.50;99.90;;;;;;6094057;23;20029;-69
2024/01/16 00:10:00;;;;;;;8.65;1.25;;;0.50;99.90;;;;;;6120036;23;20026;-69
2024/01/16 00:12:25;;;;;;;9.32;1.15;;;0.50;99.90;;;;;;6094463;23;20014;-69
2024/01/16 00:14:51;;;;;;;6.18;1.17;;;0.50;99.90;;;;;;6116753;23;20026;-70
2024/01/16 00:17:17;;;;;;;5.82;1.50;;;0.40;99.90;;;;;;6119130;23;20033;-69
2024/01/16 00:19:42;;;;;;;5.18;1.30;;;0.40;99.90;;;;;;6120517;23;20018;-70
2024/01/16 00:22:08;;;;;;;7.22;0.82;;;0.40;99.90;;;;;;6095695;23;20157;-69
2024/01/16 00:24:34;;;;;;;4.90;1.02;;;0.30;99.90;;;;;;6121714;23;20024;-69
2024/01/16 00:26:59;;;;;;;5.60;1.10;;;0.30;99.90;;;;;;6121963;23;20017;-69
2024/01/16 00:29:25;;;;;;;4.65;0.93;;;0.30;99.90;;;;;;6096198;23;20037;-69
2024/01/16 00:31:51;;;;;;;10.10;1.20;;;0.40;99.90;;;;;;6095600;23;20089;-70
2024/01/16 00:34:16;;;;;;;7.97;1.48;;;0.40;99.90;;;;;;6122273;23;20026;-70
2024/01/16 00:36:42;;;;;;;11.48;1.10;;;0.40;99.90;;;;;;6096295;23;20018;-68
2024/01/16 00:39:08;;;;;;;10.48;1.25;;;0.40;99.90;;;;;;6072433;23;20076;-68
2024/01/16 00:41:34;;;;;;;4.60;1.10;;;0.40;99.90;;;;;;6121865;23;20470;-68
2024/01/16 00:43:59;;;;;;;5.53;1.15;;;0.40;99.90;;;;;;6096078;23;20028;-68
2024/01/16 00:46:25;;;;;;;3.47;0.90;;;0.40;99.90;;;;;;6095776;23;20033;-68
2024/01/16 00:48:50;;;;;;;13.15;1.67;;;0.40;99.90;;;;;;6121958;23;20026;-68
2024/01/16 00:51:16;;;;;;;14.68;1.55;;;0.50;99.90;;;;;;6121646;23;20025;-68
2024/01/16 00:53:42;;;;;;;5.50;1.48;;;0.50;99.90;;;;;;6121991;23;20024;-69
2024/01/16 00:56:09;;;;;;;9.27;1.27;;;0.50;99.90;;;;;;6095735;23;20022;-67
2024/01/16 00:58:34;;;;;;;11.65;1.60;;;0.50;99.90;;;;;;6095487;23;20088;-68
2024/01/16 01:01:00;;;;;;;4.45;1.30;;;0.50;99.90;;;;;;6121800;23;20034;-68
2024/01/16 01:03:26;;;;;;;12.20;1.83;;;0.50;99.90;;;;;;6121994;23;20521;-68
2024/01/16 01:05:51;;;;;;;12.82;1.52;;;0.50;99.90;;;;;;6121703;23;20026;-69
2024/01/16 01:08:17;;;;;;;14.98;2.13;;;0.50;99.90;;;;;;6120934;23;20022;-68
2024/01/16 01:10:43;;;;;;;23.25;1.92;;;0.50;99.90;;;;;;6121467;23;20026;-69
2024/01/16 01:13:09;;;;;;;9.10;1.48;;;0.60;99.90;;;;;;6121037;23;20093;-69
2024/01/16 01:15:34;;;;;;;10.93;2.17;;;0.60;99.90;;;;;;6117667;23;20018;-69
2024/01/16 01:18:00;;;;;;;11.75;1.70;;;0.60;99.90;;;;;;6120623;23;20540;-69
2024/01/16 01:20:26;;;;;;;10.50;1.88;;;0.60;99.90;;;;;;6095985;23;20026;-69
2024/01/16 01:22:52;;;;;;;8.15;1.90;;;0.60;99.90;;;;;;6121945;23;20442;-69
2024/01/16 01:25:17;;;;;;;7.03;1.42;;;0.60;99.90;;;;;;6121929;23;20072;-69
2024/01/16 01:27:43;;;;;;;7.75;1.67;;;0.70;99.90;;;;;;6121168;23;20022;-69
2024/01/16 01:30:10;;;;;;;14.98;2.40;;;0.70;99.90;;;;;;6122084;23;20442;-69
2024/01/16 01:32:36;;;;;;;14.73;2.63;;;0.70;99.90;;;;;;6120533;23;20057;-69
2024/01/16 01:35:02;;;;;;;5.38;1.52;;;0.70;99.90;;;;;;6121032;23;20069;-69
2024/01/16 01:37:28;;;;;;;9.70;1.15;;;0.70;99.90;;;;;;6121096;23;20030;-69
2024/01/16 01:39:54;;;;;;;6.82;1.38;;;0.80;99.90;;;;;;6121032;23;20076;-69
2024/01/16 01:42:19;;;;;;;10.98;2.35;;;0.90;99.90;;;;;;6122537;23;20017;-69
2024/01/16 01:44:45;;;;;;;12.63;1.50;;;0.90;99.90;;;;;;6121666;23;20049;-69
2024/01/16 01:47:11;;;;;;;7.78;1.75;;;1.00;99.90;;;;;;6121023;23;20068;-70
2024/01/16 01:49:38;;;;;;;10.10;1.60;;;1.00;99.90;;;;;;6121513;23;20815;-69
2024/01/16 01:52:05;;;;;;;9.75;1.48;;;0.90;99.90;;;;;;6121565;23;20017;-69
2024/01/16 01:54:34;;;;;;;9.90;2.30;;;0.90;99.90;;;;;;6095826;23;20550;-69
2024/01/16 01:57:01;;;;;;;9.73;1.75;;;0.80;99.90;;;;;;6095183;23;20030;-69
2024/01/16 01:59:29;;;;;;;8.27;1.50;;;0.80;99.90;;;;;;6094054;23;20018;-69
2024/01/16 02:01:55;;;;;;;7.07;1.20;;;0.70;99.90;;;;;;6093137;23;20049;-69
2024/01/16 02:04:22;;;;;;;5.90;1.40;;;0.60;99.90;;;;;;6093880;23;20026;-69
2024/01/16 02:06:48;;;;;;;5.10;1.00;;;0.60;99.90;;;;;;6094958;23;20056;-69
2024/01/16 02:09:14;;;;;;;3.65;0.80;;;0.60;99.90;;;;;;6121442;23;20022;-69
2024/01/16 02:11:43;;;;;;;5.25;0.90;;;0.50;99.90;;;;;;6094598;23;20025;-69
2024/01/16 02:14:09;;;;;;;6.82;1.20;;;0.50;99.90;;;;;;6119387;23;20022;-69
2024/01/16 02:16:40;;;;;;;2.92;0.73;;;0.50;99.90;;;;;;6118677;23;20029;-69
2024/01/16 02:19:07;;;;;;;5.78;0.85;;;0.50;99.90;;;;;;6119902;23;20025;-69
2024/01/16 02:21:43;;;;;;;6.28;1.10;;;0.50;99.90;;;;;;6120967;23;20344;-69
2024/01/16 02:24:11;;;;;;;4.40;0.82;;;0.50;99.90;;;;;;6121173;23;20084;-69
2024/01/16 02:26:37;;;;;;;5.60;1.05;;;0.40;99.90;;;;;;6119809;23;20373;-69
2024/01/16 02:29:04;;;;;;;8.35;1.10;;;0.40;99.90;;;;;;6121180;23;20494;-69
2024/01/16 02:31:30;;;;;;;9.25;3.08;;;0.40;99.90;;;;;;6121057;23;20207;-69
2024/01/16 02:33:56;;;;;;;9.13;1.30;;;0.50;99.90;;;;;;6120977;23;20383;-69
2024/01/16 02:36:22;;;;;;;7.00;1.20;;;0.40;99.90;;;;;;6121189;23;20028;-69
2024/01/16 02:38:47;;;;;;;7.47;1.15;;;0.40;99.90;;;;;;6094862;23;20021;-70
2024/01/16 02:41:17;;;;;;;11.48;2.10;;;0.50;99.90;;;;;;6121674;23;20093;-69
2024/01/16 02:43:43;;;;;;;14.43;1.70;;;0.50;99.90;;;;;;6095169;23;20014;-69
2024/01/16 02:46:08;;;;;;;11.23;1.85;;;0.50;99.90;;;;;;6094488;23;20410;-69
2024/01/16 02:48:35;;;;;;;6.13;1.10;;;0.50;99.90;;;;;;6121142;23;20081;-69
2024/01/16 02:51:01;;;;;;;6.22;1.70;;;0.50;99.90;;;;;;6094815;23;20089;-69
2024/01/16 02:53:28;;;;;;;10.35;1.58;;;0.50;99.90;;;;;;6095498;23;20050;-69
2024/01/16 02:55:54;;;;;;;6.53;1.40;;;0.50;99.90;;;;;;6121183;23;20041;-69
2024/01/16 02:58:21;;;;;;;9.98;1.70;;;0.60;99.90;;;;;;6070048;23;20021;-69
2024/01/16 03:00:47;;;;;;;11.55;1.10;;;0.60;99.90;;;;;;6094623;23;20025;-69
2024/01/16 03:03:14;;;;;;;9.13;1.42;;;0.60;99.90;;;;;;6120741;23;20723;-70
2024/01/16 03:05:40;;;;;;;6.65;1.35;;;0.60;99.90;;;;;;6121242;23;20057;-69
2024/01/16 03:08:06;;;;;;;17.17;2.28;;;0.60;99.90;;;;;;6120800;23;20021;-69
2024/01/16 03:10:32;;;;;;;6.63;1.25;;;0.50;99.90;;;;;;6095467;23;20073;-70
2024/01/16 03:12:58;;;;;;;14.73;2.58;;;0.60;99.90;;;;;;6121278;23;20378;-69
2024/01/16 03:15:24;;;;;;;7.68;1.27;;;0.60;99.90;;;;;;6116785;23;20529;-69
2024/01/16 03:17:50;;;;;;;16.63;2.40;;;0.60;99.90;;;;;;6119096;23;20445;-69
2024/01/16 03:20:18;;;;;;;8.02;1.23;;;0.60;99.90;;;;;;6121440;23;20022;-69
2024/01/16 03:22:44;;;;;;;11.43;1.77;;;0.60;99.90;;;;;;6094605;23;20046;-69
2024/01/16 03:25:10;;;;;;;8.85;1.55;;;0.70;99.90;;;;;;6120141;23;20025;-69
2024/01/16 03:27:37;;;;;;;8.75;1.30;;;0.70;99.90;;;;;;6121200;23;20021;-71
2024/01/16 03:30:04;;;;;;;7.38;1.40;;;0.70;99.90;;;;;;6119852;23;20249;-69
2024/01/16 03:32:29;;;;;;;10.13;1.80;;;0.70;99.90;;;;;;6120569;23;20093;-69
2024/01/16 03:34:55;;;;;;;6.25;1.85;;;0.80;99.90;;;;;;6121331;23;20041;-69
2024/01/16 03:37:21;;;;;;;6.95;1.50;;;0.70;99.90;;;;;;6120378;23;20022;-69
2024/01/16 03:39:46;;;;;;;6.82;1.55;;;0.70;99.90;;;;;;6094062;23;20042;-69
2024/01/16 03:42:15;;;;;;;9.68;1.88;;;0.80;99.90;;;;;;6120557;23;20022;-69
2024/01/16 03:44:41;;;;;;;4.63;1.25;;;0.80;99.90;;;;;;6120191;23;20021;-69
2024/01/16 03:47:08;;;;;;;8.35;1.42;;;0.80;99.90;;;;;;6120126;23;20068;-69
2024/01/16 03:49:33;;;;;;;10.30;1.30;;;0.80;99.90;;;;;;6120239;23;20049;-70
2024/01/16 03:51:59;;;;;;;9.63;1.45;;;0.80;99.90;;;;;;6120850;23;20025;-69
2024/01/16 03:54:25;;;;;;;12.90;2.33;;;0.80;99.90;;;;;;6121107;23;20345;-69
2024/01/16 03:56:51;;;;;;;7.25;1.40;;;0.70;99.90;;;;;;6120258;23;20026;-69
2024/01/16 03:59:17;;;;;;;10.68;1.63;;;0.70;99.90;;;;;;6121159;23;20014;-69
2024/01/16 04:01:44;;;;;;;7.80;1.50;;;0.70;99.90;;;;;;6119963;23;20541;-69
2024/01/16 04:04:10;;;;;;;8.90;1.27;;;0.70;99.90;;;;;;6120622;23;20043;-69
2024/01/16 04:06:36;;;;;;;13.77;3.45;;;0.70;99.90;;;;;;6120958;23;20018;-69
2024/01/16 04:09:02;;;;;;;7.53;1.65;;;0.60;99.90;;;;;;6120341;23;20006;-69
2024/01/16 04:11:29;;;;;;;9.65;2.55;;;0.60;99.90;;;;;;6119999;23;20053;-69
2024/01/16 04:13:55;;;;;;;8.50;1.65;;;0.50;99.90;;;;;;6119823;23;20014;-70
2024/01/16 04:16:21;;;;;;;5.03;1.20;;;0.50;99.90;;;;;;6117913;23;20054;-69
2024/01/16 04:18:47;;;;;;;11.32;1.50;;;0.50;99.90;;;;;;6119065;23;20362;-69
2024/01/16 04:21:12;;;;;;;7.10;1.40;;;0.50;99.90;;;;;;6120950;23;20044;-69
2024/01/16 04:23:38;;;;;;;10.80;1.90;;;0.50;99.90;;;;;;6120837;23;20026;-70
2024/01/16 04:26:04;;;;;;;9.30;1.90;;;0.50;99.90;;;;;;6120359;23;20474;-69
2024/01/16 04:28:29;;;;;;;6.63;1.27;;;0.60;99.90;;;;;;6121249;23;20065;-69
2024/01/16 04:30:55;;;;;;;4.13;1.50;;;0.70;99.90;;;;;;6120489;23;20022;-69
2024/01/16 04:33:21;;;;;;;10.88;1.80;;;0.80;99.90;;;;;;6119686;23;20022;-69
2024/01/16 04:35:47;;;;;;;5.80;1.40;;;0.80;99.90;;;;;;6120963;23;20025;-70
2024/01/16 04:38:12;;;;;;;5.22;0.93;;;0.90;99.90;;;;;;6121417;23;20044;-70
2024/01/16 04:40:38;;;;;;;8.30;1.05;;;0.90;99.90;;;;;;6120492;23;20050;-70
2024/01/16 04:43:03;;;;;;;6.53;1.58;;;1.00;99.90;;;;;;6121188;23;20026;-70
2024/01/16 04:45:29;;;;;;;5.88;1.10;;;1.00;99.90;;;;;;6120428;23;20102;-70
2024/01/16 04:47:55;;;;;;;13.27;2.35;;;1.00;99.90;;;;;;6094504;23;20014;-71
2024/01/16 04:50:20;;;;;;;10.13;1.27;;;1.00;99.90;;;;;;6121070;23;20026;-70
2024/01/16 04:52:46;;;;;;;4.43;1.02;;;1.10;99.90;;;;;;6120908;23;20014;-70
2024/01/16 04:55:13;;;;;;;9.65;1.08;;;1.10;99.90;;;;;;6120500;23;20462;-71
2024/01/16 04:57:38;;;;;;;7.43;1.15;;;1.10;99.90;;;;;;6094534;23;20025;-70
2024/01/16 05:00:06;;;;;;;26.20;2.08;;;1.10;99.90;;;;;;6094076;23;20073;-70
2024/01/16 05:02:33;;;;;;;9.20;1.27;;;1.20;99.90;;;;;;6092922;23;20053;-71
2024/01/16 05:04:59;;;;;;;6.30;1.00;;;1.20;99.90;;;;;;6094225;23;20022;-70
2024/01/16 05:07:26;;;;;;;10.50;1.52;;;1.20;99.90;;;;;;6094793;23;20416;-71
2024/01/16 05:09:52;;;;;;;8.38;1.30;;;1.20;99.90;;;;;;6096877;23;20022;-70
2024/01/16 05:12:18;;;;;;;8.07;1.45;;;1.10;99.90;;;;;;6095634;23;20032;-70
2024/01/16 05:14:43;;;;;;;11.27;1.25;;;1.00;99.90;;;;;;6118366;23;20033;-71
2024/01/16 05:17:09;;;;;;;8.60;1.17;;;1.00;99.90;;;;;;6121554;23;20026;-70
2024/01/16 05:19:35;;;;;;;7.40;1.77;;;0.90;99.90;;;;;;6122091;23;20014;-70
2024/01/16 05:22:00;;;;;;;9.18;1.15;;;0.90;99.90;;;;;;6121381;23;20022;-70
2024/01/16 05:24:26;;;;;;;5.50;1.33;;;0.80;99.90;;;;;;6096042;23;20018;-70
2024/01/16 05:26:51;;;;;;;8.05;1.42;;;0.80;99.90;;;;;;6071999;23;20021;-70
2024/01/16 05:29:18;;;;;;;9.90;1.30;;;0.80;99.90;;;;;;6122113;23;20480;-71
2024/01/16 05:31:44;;;;;;;6.55;1.40;;;0.70;99.90;;;;;;6121497;23;20033;-71
2024/01/16 05:34:10;;;;;;;6.70;1.13;;;0.80;99.90;;;;;;6122222;23;20010;-70
2024/01/16 05:36:36;;;;;;;13.05;1.90;;;0.70;99.90;;;;;;6120603;23;20018;-70
2024/01/16 05:39:02;;;;;;;14.38;2.22;;;0.70;99.90;;;;;;6121910;23;20037;-70
2024/01/16 05:41:31;;;;;;;13.20;2.13;;;0.80;99.90;;;;;;6122094;23;20084;-71
2024/01/16 05:43:57;;;;;;;7.72;1.58;;;0.80;99.90;;;;;;6096559;23;20150;-71
2024/01/16 05:46:23;;;;;;;12.63;2.45;;;0.90;99.90;;;;;;6071396;23;20029;-70
2024/01/16 05:48:48;;;;;;;12.07;1.73;;;0.90;99.90;;;;;;6071522;23;20018;-70
2024/01/16 05:51:14;;;;;;;7.60;2.00;;;0.90;99.90;;;;;;6096066;23;20018;-71
2024/01/16 05:53:40;;;;;;;10.10;1.88;;;0.90;99.90;;;;;;6122163;23;20022;-70
2024/01/16 05:56:05;;;;;;;6.57;1.75;;;0.90;99.90;;;;;;6121104;23;20032;-70
2024/01/16 05:58:35;;;;;;;10.15;2.17;;;0.90;99.90;;;;;;6122775;23;20026;-70
2024/01/16 06:01:01;;;;;;;15.00;2.22;;;0.90;99.90;;;;;;6120756;23;20030;-71
2024/01/16 06:03:26;;;;;;;13.70;1.80;;;0.90;99.90;;;;;;6120353;23;20044;-71
2024/01/16 06:05:52;;;;;;;8.50;1.50;;;0.80;99.90;;;;;;6122450;23;20345;-70
2024/01/16 06:08:18;;;;;;;8.68;1.90;;;0.80;99.90;;;;;;6121514;23;20518;-71
2024/01/16 06:10:45;;;;;;;8.65;1.10;;;0.80;99.90;;;;;;6121192;23;20018;-70
2024/01/16 06:13:11;;;;;;;9.90;1.30;;;0.80;99.90;;;;;;6095393;23;20029;-69
2024/01/16 06:15:36;;;;;;;9.30;1.50;;;0.90;99.90;;;;;;6067555;23;20288;-70
2024/01/16 06:18:05;;;;;;;6.68;1.48;;;1.00;99.90;;;;;;6089716;23;20033;-70
2024/01/16 06:20:32;;;;;;;15.05;2.05;;;1.00;99.90;;;;;;6090511;23;20018;-70
2024/01/16 06:22:57;;;;;;;10.38;1.40;;;1.10;99.90;;;;;;6089710;23;20534;-70
2024/01/16 06:25:23;;;;;;;10.30;1.73;;;1.10;99.90;;;;;;6065722;23;20105;-69
2024/01/16 06:27:49;;;;;;;9.70;1.52;;;1.10;99.90;;;;;;6066477;23;20031;-68
2024/01/16 06:30:15;;;;;;;5.43;2.33;;;1.10;99.90;;;;;;6090832;23;20540;-70
2024/01/16 06:32:40;;;;;;;10.10;1.70;;;1.10;99.90;;;;;;6089534;23;20026;-70
2024/01/16 06:35:07;;;;;;;9.93;0.90;;;1.00;99.90;;;;;;6065888;23;20316;-70
2024/01/16 06:37:33;;;;;;;10.32;1.83;;;1.10;99.90;;;;;;6088161;23;20371;-69
2024/01/16 06:39:59;;;;;;;10.13;1.75;;;1.10;99.90;;;;;;6089906;23;20022;-69
2024/01/16 06:42:24;;;;;;;8.18;1.55;;;1.10;99.90;;;;;;6089402;23;20022;-70
2024/01/16 06:44:50;;;;;;;10.02;1.65;;;1.10;99.90;;;;;;6064590;23;20375;-70
2024/01/16 06:47:16;;;;;;;13.77;1.80;;;1.10;99.90;;;;;;6091189;23;20101;-69
2024/01/16 06:49:41;;;;;;;8.80;1.27;;;1.10;99.90;;;;;;6091426;23;20074;-70
2024/01/16 06:52:08;;;;;;;8.80;1.55;;;1.10;99.90;;;;;;6090910;23;20022;-70
2024/01/16 06:54:33;;;;;;;6.47;1.30;;;1.00;99.90;;;;;;6091989;23;20026;-69
2024/01/16 06:56:59;;;;;;;9.63;1.67;;;1.00;99.90;;;;;;6091537;23;20025;-68
2024/01/16 06:59:25;;;;;;;7.20;1.98;;;1.00;99.90;;;;;;6092573;23;20025;-68
2024/01/16 07:01:51;;;;;;;9.07;2.35;;;0.90;99.90;;;;;;6091317;23;20064;-68
2024/01/16 07:04:17;;;;;;;13.25;2.10;;;0.90;99.90;;;;;;6091898;23;20018;-68
2024/01/16 07:06:43;;;;;;;10.27;2.15;;;0.80;99.90;;;;;;6092379;23;20320;-68
2024/01/16 07:09:12;;;;;;;21.00;3.20;;;0.80;99.90;;;;;;6092280;23;20587;-69
2024/01/16 07:11:42;;;;;;;11.43;1.75;;;0.80;99.90;;;;;;6092696;23;20054;-69
2024/01/16 07:14:09;;;;;;;8.43;2.13;;;0.70;99.90;;;;;;6089518;23;20549;-69
2024/01/16 07:16:34;;;;;;;8.75;1.65;;;0.70;99.90;;;;;;6089690;23;20023;-69
2024/01/16 07:19:01;;;;;;;10.35;1.85;;;0.70;99.90;;;;;;6119193;23;20128;-69
2024/01/16 07:21:27;;;;;;;14.40;2.90;;;0.70;99.90;;;;;;6120995;23;20013;-69
2024/01/16 07:23:53;;;;;;;10.05;2.55;;;0.70;99.90;;;;;;6120763;23;20017;-69
2024/01/16 07:26:19;;;;;;;14.55;3.28;;;0.60;99.90;;;;;;6121556;23;20072;-69
2024/01/16 07:28:47;;;;;;;7.43;1.95;;;0.70;99.90;;;;;;6120792;23;20017;-69
2024/01/16 07:31:13;;;;;;;13.05;2.35;;;0.70;99.90;;;;;;6120134;23;20010;-69
2024/01/16 07:33:39;;;;;;;10.10;3.45;;;0.70;99.90;;;;;;6119680;23;20611;-69
2024/01/16 07:36:06;;;;;;;11.73;3.63;;;0.80;99.90;;;;;;6120106;23;20176;-70
2024/01/16 07:38:32;;;;;;;12.50;3.72;;;0.80;99.90;;;;;;6094924;23;20018;-64
2024/01/16 07:40:58;;;;;;;15.52;2.80;;;0.80;99.90;;;;;;6119801;23;20121;-66
2024/01/16 07:43:23;;;;;;;11.00;3.95;;;0.80;99.90;;;;;;6120587;23;20006;-65
2024/01/16 07:45:49;;;;;;;9.15;2.67;;;0.80;99.90;;;;;;6093713;23;20097;-66
2024/01/16 07:48:15;;;;;;;8.98;1.58;;;0.80;99.90;;;;;;6120169;23;20029;-66
2024/01/16 07:50:41;;;;;;;5.57;1.65;;;0.80;99.90;;;;;;6120589;23;20018;-66
2024/01/16 07:53:07;;;;;;;9.65;1.27;;;0.90;99.90;;;;;;6120068;23;20037;-66
2024/01/16 07:55:32;;;;;;;10.25;1.30;;;0.90;99.90;;;;;;6094290;23;20024;-66
2024/01/16 07:57:58;;;;;;;4.78;1.98;;;0.90;99.90;;;;;;6120774;23;20014;-65
2024/01/16 08:00:24;;;;;;;7.07;1.10;;;0.90;99.90;;;;;;6119822;23;20064;-66
2024/01/16 08:02:49;;;;;;;5.38;1.48;;;1.00;99.90;;;;;;6120585;23;20014;-65
2024/01/16 08:05:15;;;;;;;7.25;1.30;;;1.00;99.90;;;;;;6120097;23;20014;-65
2024/01/16 08:07:44;;;;;;;5.78;1.00;;;1.00;99.90;;;;;;6120442;23;20024;-65
2024/01/16 08:10:09;;;;;;;4.38;0.85;;;1.00;99.90;;;;;;6094271;23;20030;-66
2024/01/16 08:12:37;;;;;;;10.52;2.70;;;1.00;99.90;;;;;;6094404;23;20417;-65
2024/01/16 08:15:03;;;;;;;3.65;0.70;;;1.00;99.90;;;;;;6089985;23;20022;-65
2024/01/16 08:17:29;;;;;;;8.07;1.10;;;1.00;99.90;;;;;;6093865;23;20024;-65
2024/01/16 08:19:54;;;;;;;5.45;0.80;;;1.00;99.90;;;;;;6070696;23;20021;-64
2024/01/16 08:22:20;;;;;;;8.07;1.52;;;1.10;99.90;;;;;;6120881;23;20033;-65
2024/01/16 08:24:46;;;;;;;11.38;1.52;;;1.00;99.90;;;;;;6093849;23;20046;-65
2024/01/16 08:27:12;;;;;;;6.22;2.30;;;1.00;99.90;;;;;;6093939;23;20055;-65
2024/01/16 08:29:37;;;;;;;11.40;3.10;;;1.00;99.90;;;;;;6120928;23;20014;-65
2024/01/16 08:32:04;;;;;;;13.23;3.20;;;1.00;99.90;;;;;;6119984;23;20100;-70
2024/01/16 08:34:29;;;;;;;6.50;2.67;;;1.00;99.90;;;;;;6093977;23;20036;-70
2024/01/16 08:36:56;;;;;;;10.70;3.28;;;1.00;99.90;;;;;;6094305;23;20445;-69
2024/01/16 08:39:23;;;;;;;11.02;4.63;;;1.00;99.90;;;;;;6094896;23;20061;-69
2024/01/16 08:41:49;;;;;;;14.95;5.57;;;1.00;99.90;;;;;;6095225;23;20040;-70
2024/01/16 08:44:15;;;;;;;11.48;5.05;;;0.90;99.90;;;;;;6096691;23;20018;-70
2024/01/16 08:46:41;;;;;;;13.93;5.18;;;1.00;99.90;;;;;;6122471;23;20018;-69
2024/01/16 08:49:06;;;;;;;11.40;5.55;;;0.90;99.90;;;;;;6095611;23;20036;-69
2024/01/16 08:51:32;;;;;;;5.57;3.13;;;0.90;99.90;;;;;;6123664;23;20045;-69
2024/01/16 08:53:58;;;;;;;5.50;3.10;;;0.90;99.90;;;;;;6096161;23;20014;-69
2024/01/16 08:56:23;;;;;;;5.25;2.70;;;0.90;99.90;;;;;;6073055;23;20450;-69
2024/01/16 08:58:49;;;;;;;5.57;3.33;;;0.90;99.90;;;;;;6096622;23;20018;-69
2024/01/16 09:01:15;;;;;;;6.82;1.80;;;0.90;99.90;;;;;;6095743;23;20473;-69
2024/01/16 09:03:43;;;;;;;5.57;2.08;;;0.90;99.90;;;;;;6122392;23;20018;-69
2024/01/16 09:06:10;;;;;;;4.47;2.33;;;0.90;99.90;;;;;;6096242;23;20029;-69
2024/01/16 09:08:36;;;;;;;5.03;1.35;;;1.00;99.90;;;;;;6072071;23;20034;-69
2024/01/16 09:11:01;;;;;;;4.82;1.00;;;1.00;99.90;;;;;;6096845;23;20089;-70
2024/01/16 09:13:27;;;;;;;3.20;1.17;;;1.10;99.90;;;;;;6122319;23;20041;-70
2024/01/16 09:15:53;;;;;;;6.40;1.10;;;1.10;99.90;;;;;;6118750;23;20439;-70
2024/01/16 09:18:18;;;;;;;8.18;1.58;;;1.20;99.90;;;;;;6121604;23;20017;-70
2024/01/16 09:20:44;;;;;;;6.88;1.40;;;1.20;99.90;;;;;;6096638;23;20097;-70
2024/01/16 09:23:10;;;;;;;2.88;0.82;;;1.30;99.90;;;;;;6121809;23;20017;-70
2024/01/16 09:25:36;;;;;;;7.53;1.30;;;1.30;99.90;;;;;;6123783;23;20049;-70
2024/01/16 09:28:02;;;;;;;3.83;1.17;;;1.40;99.90;;;;;;6122638;23;20025;-70
2024/01/16 09:30:28;;;;;;;5.07;1.05;;;1.30;99.90;;;;;;6096927;23;20010;-70
2024/01/16 09:32:53;;;;;;;3.30;1.35;;;1.40;99.90;;;;;;6096081;23;20048;-69
2024/01/16 09:35:19;;;;;;;7.07;1.23;;;1.40;99.90;;;;;;6122343;23;20319;-70
2024/01/16 09:37:45;;;;;;;7.43;1.25;;;1.40;99.90;;;;;;6122096;23;20405;-70
2024/01/16 09:40:11;;;;;;;6.80;1.50;;;1.50;99.90;;;;;;6122696;23;20744;-70
2024/01/16 09:42:37;;;;;;;5.72;1.35;;;1.50;99.90;;;;;;6096498;23;20029;-70
2024/01/16 09:45:03;;;;;;;7.15;2.38;;;1.50;99.90;;;;;;6120957;23;20033;-69
2024/01/16 09:47:33;;;;;;;7.32;3.05;;;1.50;99.90;;;;;;6071953;23;20033;-70
2024/01/16 09:50:02;;;;;;;13.63;3.60;;;1.50;99.90;;;;;;6122138;23;20014;-62
2024/01/16 09:52:28;;;;;;;5.82;1.73;;;1.40;99.90;;;;;;6095223;23;20446;-65
2024/01/16 09:54:54;;;;;;;20.15;8.02;;;1.40;99.90;;;;;;6122904;23;20049;-64
2024/01/16 09:57:24;;;;;;;12.07;4.68;;;1.40;99.90;;;;;;6095129;23;20013;-64
2024/01/16 09:59:51;;;;;;;9.05;3.95;;;1.40;99.90;;;;;;6121938;23;20093;-64
2024/01/16 10:02:20;;;;;;;10.27;4.03;;;1.40;99.90;;;;;;6120337;23;20338;-64
2024/01/16 10:04:46;;;;;;;6.47;3.45;;;1.40;99.90;;;;;;6121591;23;20065;-64
2024/01/16 10:07:15;;;;;;;10.27;2.42;;;1.40;99.90;;;;;;6120147;23;20517;-64
2024/01/16 10:09:41;;;;;;;4.60;1.48;;;1.50;99.90;;;;;;6093523;23;20033;-64
2024/01/16 10:12:07;;;;;;;9.20;2.22;;;1.50;99.90;;;;;;6121072;23;20029;-64
2024/01/16 10:14:34;;;;;;;6.45;1.38;;;1.40;99.90;;;;;;6118671;23;20014;-64
2024/01/16 10:17:14;;;;;;;6.00;1.67;;;1.50;99.90;;;;;;6119837;23;20018;-64
2024/01/16 10:19:51;;;;;;;4.70;1.92;;;1.50;99.90;;;;;;6120895;23;20018;-64
2024/01/16 10:22:21;;;;;;;9.23;2.50;;;1.40;99.90;;;;;;6122654;23;20026;-64
2024/01/16 10:24:47;;;;;;;9.27;2.40;;;1.40;99.90;;;;;;6096240;23;20402;-64
2024/01/16 10:27:17;;;;;;;12.55;2.97;;;1.40;99.90;;;;;;6122905;23;20086;-65
2024/01/16 10:29:56;;;;;;;7.80;2.88;;;1.40;99.90;;;;;;6120313;23;20489;-65
2024/01/16 10:32:35;;;;;;;6.40;1.98;;;1.40;99.90;;;;;;6093928;23;20053;-65
2024/01/16 10:35:13;;;;;;;9.35;3.65;;;1.40;99.90;;;;;;6120731;23;20030;-65
2024/01/16 10:37:53;;;;;;;8.30;2.65;;;1.40;99.90;;;;;;6119402;23;20033;-65
2024/01/16 10:40:24;;;;;;;8.18;2.20;;;1.40;99.90;;;;;;6094213;23;20025;-65
2024/01/16 10:43:06;;;;;;;12.48;2.15;;;1.50;99.90;;;;;;6119330;23;20687;-65
2024/01/16 10:45:33;;;;;;;7.32;2.08;;;1.50;99.90;;;;;;6119566;23;20049;-66
2024/01/16 10:48:02;;;;;;;8.27;2.58;;;1.60;99.90;;;;;;6069390;23;20026;-65
2024/01/16 10:50:29;;;;;;;5.03;1.35;;;1.60;99.90;;;;;;6120314;23;20715;-65
2024/01/16 10:52:54;;;;;;;11.52;2.30;;;1.60;99.90;;;;;;6094837;23;20374;-65
2024/01/16 10:55:22;;;;;;;8.48;1.73;;;1.50;99.90;;;;;;6121504;23;20026;-65
2024/01/16 10:57:50;;;;;;;13.35;3.97;;;1.40;99.90;;;;;;6095990;23;20030;-66
2024/01/16 11:00:22;;;;;;;11.88;3.33;;;1.30;99.90;;;;;;6121317;23;20022;-65
2024/01/16 11:03:00;;;;;;;9.07;2.35;;;1.30;99.90;;;;;;6093668;23;20025;-66
2024/01/16 11:05:30;;;;;;;9.40;3.42;;;1.30;99.90;;;;;;6121315;23;20025;-66
2024/01/16 11:07:58;;;;;;;18.40;7.72;;;1.30;99.90;;;;;;6094260;23;20110;-66
2024/01/16 11:10:25;;;;;;;14.40;5.43;;;1.30;99.90;;;;;;6095720;23;20022;-66
2024/01/16 11:12:52;;;;;;;15.77;5.25;;;1.40;99.90;;;;;;6119152;23;20025;-66
2024/01/16 11:15:18;;;;;;;10.50;4.38;;;1.50;99.90;;;;;;6090465;23;20092;-66
2024/01/16 11:17:45;;;;;;;11.73;2.95;;;1.50;99.90;;;;;;6119304;23;20025;-66
2024/01/16 11:20:11;;;;;;;8.57;2.75;;;1.50;99.90;;;;;;6119042;23;20034;-66
2024/01/16 11:22:41;;;;;;;7.20;1.50;;;1.60;99.90;;;;;;6119584;23;20380;-65
2024/01/16 11:25:18;;;;;;;9.20;1.42;;;1.60;99.90;;;;;;6093838;23;20030;-66
2024/01/16 11:27:50;;;;;;;4.82;1.63;;;1.70;99.90;;;;;;6121214;23;20081;-66
2024/01/16 11:30:31;;;;;;;7.57;1.98;;;1.70;99.90;;;;;;6121827;23;20018;-66
2024/01/16 11:32:57;;;;;;;7.82;1.50;;;1.80;99.90;;;;;;6095210;23;20478;-66
2024/01/16 11:35:33;;;;;;;7.15;1.88;;;1.80;99.90;;;;;;6121532;23;20049;-66
2024/01/16 11:38:20;;;;;;;11.02;1.92;;;1.90;99.90;;;;;;6120251;23;20492;-66
2024/01/16 11:40:47;;;;;;;8.43;1.38;;;1.90;99.90;;;;;;6094495;23;20028;-66
2024/01/16 11:43:37;;;;;;;4.93;1.42;;;1.90;99.90;;;;;;6122104;23;20018;-66
2024/01/16 11:46:08;;;;;;;9.35;1.45;;;1.90;99.90;;;;;;6098224;23;20029;-66
2024/01/16 11:48:34;;;;;;;6.40;1.42;;;2.00;99.90;;;;;;6118940;23;20328;-66
2024/01/16 11:51:20;;;;;;;9.23;3.22;;;2.00;99.90;;;;;;6121142;23;20330;-66
2024/01/16 11:53:46;;;;;;;6.13;1.70;;;2.10;99.90;;;;;;6119135;23;20021;-65
2024/01/16 11:56:18;;;;;;;11.63;2.70;;;2.10;99.90;;;;;;6120776;23;20026;-66
2024/01/16 11:59:22;;;;;;;11.35;4.00;;;2.10;99.90;;;;;;6121977;23;20018;-67
2024/01/16 12:01:52;;;;;;;9.88;3.50;;;2.00;99.90;;;;;;6093889;23;20107;-65
2024/01/16 12:04:20;;;;;;;9.57;3.33;;;2.00;99.90;;;;;;6121385;23;20029;-66
2024/01/16 12:06:59;;;;;;;8.93;2.40;;;2.00;99.90;;;;;;6095670;23;20018;-65
2024/01/16 12:09:27;;;;;;;8.55;2.30;;;2.00;99.90;;;;;;6094844;23;20462;-66
2024/01/16 12:12:03;;;;;;;6.70;2.40;;;2.00;99.90;;;;;;6120799;23;20022;-65
2024/01/16 12:14:30;;;;;;;11.27;3.28;;;2.00;99.90;;;;;;6118360;23;20024;-65
2024/01/16 12:17:15;;;;;;;12.55;4.47;;;2.10;99.90;;;;;;6121197;23;20497;-65
2024/01/16 12:19:42;;;;;;;18.33;5.55;;;2.10;99.90;;;;;;6096829;23;20021;-65
2024/01/16 12:22:13;;;;;;;19.40;5.68;;;2.10;99.90;;;;;;6097950;23;20033;-65
2024/01/16 12:24:40;;;;;;;17.58;6.43;;;2.00;99.90;;;;;;6097360;23;20022;-66
2024/01/16 12:27:08;;;;;;;18.33;5.25;;;2.00;99.90;;;;;;6122985;23;20061;-65
2024/01/16 12:29:34;;;;;;;15.18;5.97;;;2.00;99.90;;;;;;6123516;23;20343;-65
2024/01/16 12:32:07;;;;;;;8.80;3.88;;;2.00;99.90;;;;;;6072592;23;20040;-66
2024/01/16 12:34:35;;;;;;;;;;;2.00;99.90;;;;;;6124340;23;20028;-65
2024/01/16 12:37:06;;;;;;;12.55;3.47;;;2.00;99.90;;;;;;6123274;23;20016;-65
2024/01/16 12:39:35;;;;;;;10.35;3.17;;;2.00;99.90;;;;;;6122913;23;20029;-65
2024/01/16 12:42:01;;;;;;;9.38;3.30;;;2.00;99.90;;;;;;6123462;23;20021;-66
2024/01/16 12:44:30;;;;;;;10.85;3.60;;;2.10;99.90;;;;;;6095623;23;20014;-65
2024/01/16 12:46:57;;;;;;;13.82;4.30;;;2.10;99.90;;;;;;6121991;23;20389;-66
2024/01/16 12:49:23;;;;;;;10.38;3.30;;;2.20;99.90;;;;;;6095983;23;20017;-63
2024/01/16 12:51:49;;;;;;;13.02;3.15;;;2.20;99.90;;;;;;6121307;23;20167;-68